Home > Products > Valid Products > TAF

000
FTUS44 KLIX 252300
TAFGPT
TAF
KGPT 252326Z 2600/2624 VRB03KT P6SM SKC=



000
FTUS44 KLIX 252300
TAFMCB
TAF
KMCB 252326Z 2600/2624 00000KT P6SM SKC
     FM260900 00000KT 4SM BR SKC
     FM261500 24003KT P6SM SKC=



000
FTUS44 KLIX 252300
TAFBTR
TAF
KBTR 252326Z 2600/2624 VRB03KT P6SM SKC=



000
FTUS44 KLIX 252300
TAFMSY
TAF
KMSY 252326Z 2600/2624 34004KT P6SM SKC=



000
FTUS44 KLIX 252300
TAFNEW
TAF
KNEW 252326Z 2600/2624 32006KT P6SM SKC
     FM261400 02004KT P6SM SKC=



000
FTUS44 KLIX 251700
TAFNEW
TAF
KNEW 251720Z 2518/2618 VRB04KT P6SM SKC
     FM261400 VRB03KT P6SM SKC=



000
FTUS44 KLIX 251700
TAFMCB
TAF
KMCB 251720Z 2518/2618 01007KT P6SM SKC=



000
FTUS44 KLIX 251700
TAFGPT
TAF
KGPT 251720Z 2518/2618 02009KT P6SM SKC
     FM261200 VRB03KT P6SM SKC=



000
FTUS44 KLIX 251700
TAFMSY
TAF
KMSY 251720Z 2518/2618 06005KT P6SM SKC
     FM261600 00000KT P6SM SKC=



000
FTUS44 KLIX 251700
TAFBTR
TAF
KBTR 251720Z 2518/2618 VRB05KT P6SM SKC=



000
FTUS44 KLIX 251700
TAFMCB
TAF
KMCB 251720Z 2518/2618 01007KT P6SM SKC=



000
FTUS44 KLIX 251700
TAFMSY
TAF
KMSY 251720Z 2518/2618 06005KT P6SM SKC
     FM261600 00000KT P6SM SKC=



000
FTUS44 KLIX 251700
TAFNEW
TAF
KNEW 251720Z 2518/2618 VRB04KT P6SM SKC
     FM261400 VRB03KT P6SM SKC=



000
FTUS44 KLIX 251700
TAFBTR
TAF
KBTR 251720Z 2518/2618 VRB05KT P6SM SKC=



000
FTUS44 KLIX 251700
TAFGPT
TAF
KGPT 251720Z 2518/2618 02009KT P6SM SKC
     FM261200 VRB03KT P6SM SKC=



000
FTUS44 KLIX 251100
TAFMCB
TAF
KMCB 251138Z 2512/2612 34003KT P6SM SKC=



000
FTUS44 KLIX 251100
TAFBTR
TAF
KBTR 251138Z 2512/2612 34003KT P6SM SKC=



000
FTUS44 KLIX 251100
TAFMSY
TAF
KMSY 251138Z 2512/2612 01007KT P6SM SKC=



000
FTUS44 KLIX 251100
TAFNEW
TAF
KNEW 251138Z 2512/2612 01009KT P6SM SKC
     FM260800 01005KT P6SM SKC=



000
FTUS44 KLIX 251100
TAFGPT
TAF
KGPT 251138Z 2512/2612 01007KT P6SM SKC=



000
FTUS44 KLIX 251100
TAFBTR
TAF
KBTR 251138Z 2512/2612 34003KT P6SM SKC=



000
FTUS44 KLIX 251100
TAFNEW
TAF
KNEW 251138Z 2512/2612 01009KT P6SM SKC
     FM260800 01005KT P6SM SKC=



000
FTUS44 KLIX 251100
TAFMCB
TAF
KMCB 251138Z 2512/2612 34003KT P6SM SKC=



000
FTUS44 KLIX 251100
TAFMSY
TAF
KMSY 251138Z 2512/2612 01007KT P6SM SKC=



000
FTUS44 KLIX 251100
TAFGPT
TAF
KGPT 251138Z 2512/2612 01007KT P6SM SKC=



000
FTUS44 KLIX 250500
TAFMCB
TAF
KMCB 250526Z 2506/2606 36004KT P6SM SKC=



000
FTUS44 KLIX 250500
TAFNEW
TAF
KNEW 250526Z 2506/2606 03011KT P6SM SKC
     FM251900 31006KT P6SM SKC=



000
FTUS44 KLIX 250500
TAFMSY
TAF
KMSY 250526Z 2506/2606 01005KT P6SM SKC
     FM252300 31005KT P6SM SKC=



000
FTUS44 KLIX 250500
TAFGPT
TAF
KGPT 250526Z 2506/2606 35006KT P6SM SKC=



000
FTUS44 KLIX 250500
TAFBTR
TAF
KBTR 250526Z 2506/2606 34004KT P6SM SKC=



000
FTUS44 KLIX 242300
TAFBTR
TAF
KBTR 242320Z 2500/2524 34003KT P6SM SKC=



000
FTUS44 KLIX 242300
TAFMSY
TAF
KMSY 242320Z 2500/2524 35006KT P6SM SKC=



000
FTUS44 KLIX 242300
TAFNEW
TAF
KNEW 242320Z 2500/2524 35009KT P6SM SKC
     FM250800 02010KT P6SM SKC
     FM252000 32005KT P6SM SKC=



000
FTUS44 KLIX 242300
TAFMCB
TAF
KMCB 242320Z 2500/2524 35003KT P6SM SKC=



000
FTUS44 KLIX 242300
TAFGPT
TAF
KGPT 242320Z 2500/2524 35005KT P6SM SKC=



000
FTUS44 KLIX 241700
TAFMSY
TAF
KMSY 241734Z 2418/2518 01006KT P6SM SKC=



000
FTUS44 KLIX 241700
TAFNEW
TAF
KNEW 241734Z 2418/2518 01005KT P6SM SKC
     FM250500 01009KT P6SM SKC=



000
FTUS44 KLIX 241700
TAFMCB
TAF
KMCB 241734Z 2418/2518 36005KT P6SM SKC=



000
FTUS44 KLIX 241700
TAFBTR
TAF
KBTR 241734Z 2418/2518 36005KT P6SM SKC=



000
FTUS44 KLIX 241700
TAFGPT
TAF
KGPT 241734Z 2418/2518 01005KT P6SM SKC=



000
FTUS44 KLIX 241100
TAFGPT
TAF
KGPT 241140Z 2412/2512 02004KT P6SM SCT140=



000
FTUS44 KLIX 241100
TAFBTR
TAF
KBTR 241140Z 2412/2512 00000KT P6SM FEW110
     FM241500 36005KT P6SM FEW250
     FM250100 33001KT P6SM SKC=



000
FTUS44 KLIX 241100
TAFMCB
TAF
KMCB 241140Z 2412/2512 00000KT P6SM FEW120
     FM241900 36006KT P6SM SKC
     FM250200 00000KT P6SM SKC=



000
FTUS44 KLIX 241100
TAFNEW
TAF
KNEW 241140Z 2412/2512 03008KT P6SM FEW130
     FM242100 33006KT P6SM SKC=



000
FTUS44 KLIX 241100
TAFMSY
TAF
KMSY 241140Z 2412/2512 03006KT P6SM FEW130=



000
FTUS44 KLIX 240500
TAFBTR
TAF
KBTR 240530Z 2406/2506 02004KT P6SM SKC=



000
FTUS44 KLIX 240500
TAFGPT
TAF
KGPT 240530Z 2406/2506 01004KT P6SM SCT150
     FM241400 36007KT P6SM SKC=



000
FTUS44 KLIX 240500
TAFNEW
TAF
KNEW 240530Z 2406/2506 03011KT P6SM SKC
     FM251700 36008KT P6SM SKC=



000
FTUS44 KLIX 240500
TAFMCB
TAF
KMCB 240530Z 2406/2506 01005KT P6SM SKC=



000
FTUS44 KLIX 240500
TAFMSY
TAF
KMSY 240530Z 2406/2506 01007KT P6SM SKC=



000
FTUS44 KLIX 232300
TAFNEW
TAF
KNEW 232320Z 2400/2424 03008KT P6SM BKN200
     FM241600 01006KT P6SM SKC=



000
FTUS44 KLIX 232300
TAFGPT
TAF
KGPT 232320Z 2400/2424 VRB02KT P6SM BKN200
     FM241500 01007KT P6SM SKC=



000
FTUS44 KLIX 232300
TAFMSY
TAF
KMSY 232320Z 2400/2424 03004KT P6SM BKN200
     FM241700 36006KT P6SM SKC=



000
FTUS44 KLIX 232300
TAFBTR
TAF
KBTR 232320Z 2400/2424 36004KT P6SM SCT150=



000
FTUS44 KLIX 232300
TAFMCB
TAF
KMCB 232320Z 2400/2424 35004KT P6SM SCT150=



000
FTUS44 KLIX 231700
TAFGPT
TAF
KGPT 231720Z 2318/2418 06007KT P6SM FEW250=



000
FTUS44 KLIX 231700
TAFBTR
TAF
KBTR 231720Z 2318/2418 04004KT P6SM SCT200=



000
FTUS44 KLIX 231700
TAFMSY
TAF
KMSY 231720Z 2318/2418 05008KT P6SM FEW250=



000
FTUS44 KLIX 231700
TAFMCB
TAF
KMCB 231720Z 2318/2418 03004KT P6SM SCT200=



000
FTUS44 KLIX 231700
TAFNEW
TAF
KNEW 231720Z 2318/2418 06008KT P6SM FEW250=



000
FTUS44 KLIX 231100
TAFNEW
TAF
KNEW 231136Z 2312/2412 06010KT P6SM SKC
     FM231900 06006KT P6SM FEW250=



000
FTUS44 KLIX 231100
TAFGPT
TAF
KGPT 231136Z 2312/2412 04007KT P6SM SKC
     FM240400 VRB03KT P6SM FEW250=



000
FTUS44 KLIX 231100
TAFMSY
TAF
KMSY 231136Z 2312/2412 05008KT P6SM SKC
     FM240100 05004KT P6SM FEW200=



000
FTUS44 KLIX 231100
TAFBTR
TAF
KBTR 231136Z 2312/2412 06004KT P6SM FEW250
     FM240000 00000KT P6SM FEW150=



000
FTUS44 KLIX 231100
TAFMCB
TAF
KMCB 231136Z 2312/2412 VRB03KT P6SM SKC=



000
FTUS44 KLIX 230500
TAFNEW
TAF
KNEW 230523Z 2306/2406 06015KT P6SM SKC
     FM231700 04008KT P6SM FEW250=



000
FTUS44 KLIX 230500
TAFGPT
TAF
KGPT 230523Z 2306/2406 04008KT P6SM SKC
     FM240000 03004KT P6SM SCT200=



000
FTUS44 KLIX 230500
TAFBTR
TAF
KBTR 230523Z 2306/2406 04005KT P6SM SKC=



000
FTUS44 KLIX 230500
TAFMSY
TAF
KMSY 230523Z 2306/2406 05009KT P6SM SKC
     FM232200 03005KT P6SM SCT200=



000
FTUS44 KLIX 230500
TAFMCB
TAF
KMCB 230523Z 2306/2406 02004KT P6SM SKC=



    US Dept of Commerce
    National Oceanic and Atmospheric Administration
    National Weather Service
    1325 East West Highway
    Silver Spring, MD 20910
    Page Author: NWS Internet Services Team
Disclaimer
Information Quality
Credits
Glossary
Privacy Policy
Freedom of Information Act (FOIA)
About Us
Career Opportunities